createdAt,value
2024-05-09T00:00:35.299Z,100.00
2024-05-09T00:03:05.659Z,100.00
2024-05-09T00:05:32.438Z,100.00
2024-05-09T00:07:59.095Z,100.00
2024-05-09T00:10:33.476Z,100.00
2024-05-09T00:13:06.899Z,100.00
2024-05-09T00:15:34.343Z,100.00
2024-05-09T00:18:01.677Z,100.00
2024-05-09T00:20:36.575Z,100.00
2024-05-09T00:23:06.451Z,100.00
2024-05-09T00:25:32.994Z,100.00
2024-05-09T00:27:59.523Z,100.00
2024-05-09T00:30:34.272Z,100.00
2024-05-09T00:33:03.791Z,100.00
2024-05-09T00:35:31.057Z,100.00
2024-05-09T00:37:57.818Z,100.00
2024-05-09T00:40:34.763Z,100.00
2024-05-09T00:43:05.610Z,100.00
2024-05-09T00:45:35.167Z,100.00
2024-05-09T00:48:03.847Z,100.00
2024-05-09T00:50:36.355Z,100.00
2024-05-09T00:53:05.106Z,100.00
2024-05-09T00:55:32.081Z,100.00
2024-05-09T00:57:58.787Z,100.00
2024-05-09T01:00:31.765Z,100.00
2024-05-09T01:03:08.231Z,100.00
2024-05-09T01:05:37.724Z,100.00
2024-05-09T01:08:05.365Z,100.00
2024-05-09T01:10:34.901Z,100.00
2024-05-09T01:13:03.042Z,100.00
2024-05-09T01:15:29.620Z,100.00
2024-05-09T01:17:57.677Z,100.00
2024-05-09T01:20:37.217Z,100.00
2024-05-09T01:23:12.657Z,100.00
2024-05-09T01:25:40.271Z,100.00
2024-05-09T01:28:07.174Z,100.00
2024-05-09T01:30:36.278Z,100.00
2024-05-09T01:33:05.410Z,100.00
2024-05-09T01:35:33.224Z,100.00
2024-05-09T01:38:00.236Z,100.00
2024-05-09T01:40:37.093Z,100.00
2024-05-09T01:43:07.122Z,100.00
2024-05-09T01:45:33.793Z,100.00
2024-05-09T01:48:00.908Z,100.00
2024-05-09T01:50:37.594Z,100.00
2024-05-09T01:53:08.061Z,100.00
2024-05-09T01:55:37.546Z,100.00
2024-05-09T01:58:04.681Z,100.00
2024-05-09T02:00:38.398Z,100.00
2024-05-09T02:03:08.345Z,100.00
2024-05-09T02:05:35.216Z,100.00
2024-05-09T02:08:01.950Z,100.00
2024-05-09T02:10:32.586Z,100.00
2024-05-09T02:13:02.648Z,100.00
2024-05-09T02:15:29.456Z,100.00
2024-05-09T02:17:56.345Z,100.00
2024-05-09T02:20:30.557Z,100.00
2024-05-09T02:23:02.550Z,100.00
2024-05-09T02:25:30.156Z,100.00
2024-05-09T02:27:56.788Z,100.00
2024-05-09T02:30:35.835Z,100.00
2024-05-09T02:33:07.329Z,100.00
2024-05-09T02:35:34.301Z,100.00
2024-05-09T02:38:01.406Z,100.00
2024-05-09T02:40:35.845Z,100.00
2024-05-09T02:43:04.866Z,100.00
2024-05-09T02:45:34.106Z,100.00
2024-05-09T02:48:01.479Z,100.00
2024-05-09T02:50:34.743Z,100.00
2024-05-09T02:53:05.677Z,100.00
2024-05-09T02:55:32.564Z,100.00
2024-05-09T02:57:59.277Z,100.00
2024-05-09T03:00:34.674Z,100.00
2024-05-09T03:03:10.393Z,100.00
2024-05-09T03:05:39.507Z,100.00
2024-05-09T03:08:07.107Z,100.00
2024-05-09T03:10:36.639Z,100.00
2024-05-09T03:13:06.223Z,100.00
2024-05-09T03:15:32.803Z,100.00
2024-05-09T03:17:59.847Z,100.00
2024-05-09T03:20:34.098Z,100.00
2024-05-09T03:23:02.493Z,100.00
2024-05-09T03:25:29.265Z,100.00
2024-05-09T03:27:55.852Z,100.00
2024-05-09T03:30:30.745Z,100.00
2024-05-09T03:33:09.837Z,100.00
2024-05-09T03:35:39.359Z,100.00
2024-05-09T03:38:06.013Z,100.00
2024-05-09T03:40:32.689Z,100.00
2024-05-09T03:42:59.327Z,100.00
2024-05-09T03:45:25.869Z,100.00
2024-05-09T03:47:52.971Z,100.00
2024-05-09T03:50:26.471Z,100.00
2024-05-09T03:53:02.795Z,100.00
2024-05-09T03:55:29.881Z,100.00
2024-05-09T03:57:57.286Z,100.00
2024-05-09T04:00:31.311Z,100.00
2024-05-09T04:03:05.529Z,100.00
2024-05-09T04:05:33.328Z,100.00
2024-05-09T04:08:02.692Z,100.00
2024-05-09T04:10:33.346Z,100.00
2024-05-09T04:13:01.761Z,100.00
2024-05-09T04:15:28.529Z,100.00
2024-05-09T04:17:55.337Z,100.00
2024-05-09T04:20:32.980Z,100.00
2024-05-09T04:23:10.655Z,100.00
2024-05-09T04:25:37.838Z,100.00
2024-05-09T04:28:05.374Z,100.00
2024-05-09T04:30:38.025Z,100.00
2024-05-09T04:33:09.326Z,100.00
2024-05-09T04:35:38.712Z,100.00
2024-05-09T04:38:08.445Z,100.00
2024-05-09T04:40:36.883Z,100.00
2024-05-09T04:43:04.750Z,100.00
2024-05-09T04:45:31.547Z,100.00
2024-05-09T04:47:58.577Z,100.00
2024-05-09T04:50:33.594Z,100.00
2024-05-09T04:53:05.016Z,100.00
2024-05-09T04:55:34.555Z,100.00
2024-05-09T04:58:01.167Z,100.00
2024-05-09T05:00:35.332Z,100.00
2024-05-09T05:03:04.618Z,100.00
2024-05-09T05:05:31.467Z,100.00
2024-05-09T05:07:58.270Z,100.00
2024-05-09T05:10:33.071Z,100.00
2024-05-09T05:13:04.982Z,100.00
2024-05-09T05:15:31.550Z,100.00
2024-05-09T05:17:58.240Z,100.00
2024-05-09T05:20:32.549Z,100.00
2024-05-09T05:23:00.898Z,100.00
2024-05-09T05:25:27.690Z,100.00
2024-05-09T05:27:54.319Z,100.00
2024-05-09T05:30:29.019Z,100.00
2024-05-09T05:33:00.331Z,100.00
2024-05-09T05:35:27.196Z,100.00
2024-05-09T05:37:53.986Z,100.00
2024-05-09T05:40:28.212Z,100.00
2024-05-09T05:43:02.171Z,100.00
2024-05-09T05:45:31.417Z,100.00
2024-05-09T05:47:58.120Z,100.00
2024-05-09T05:50:32.420Z,100.00
2024-05-09T05:53:02.846Z,100.00
2024-05-09T05:55:30.547Z,100.00
2024-05-09T05:57:57.280Z,100.00
2024-05-09T06:00:30.077Z,100.00
2024-05-09T06:03:07.585Z,100.00
2024-05-09T06:05:35.892Z,100.00
2024-05-09T06:08:02.645Z,100.00
2024-05-09T06:10:37.598Z,100.00
2024-05-09T06:13:07.280Z,100.00
2024-05-09T06:15:33.950Z,100.00
2024-05-09T06:18:01.039Z,100.00
2024-05-09T06:20:35.947Z,100.00
2024-05-09T06:23:05.377Z,100.00
2024-05-09T06:25:32.186Z,100.00
2024-05-09T06:28:00.435Z,100.00
2024-05-09T06:30:36.544Z,100.00
2024-05-09T06:33:07.306Z,100.00
2024-05-09T06:35:37.176Z,100.00
2024-05-09T06:38:04.357Z,100.00
2024-05-09T06:40:37.289Z,100.00
2024-05-09T06:43:10.699Z,100.00
2024-05-09T06:45:37.344Z,100.00
2024-05-09T06:48:04.796Z,100.00
2024-05-09T06:50:37.300Z,100.00
2024-05-09T06:53:08.697Z,100.00
2024-05-09T06:55:35.904Z,100.00
2024-05-09T06:58:03.914Z,100.00
2024-05-09T07:00:38.014Z,99.61
2024-05-09T07:03:08.191Z,98.00
2024-05-09T07:05:35.419Z,99.36
2024-05-09T07:08:02.129Z,96.47
2024-05-09T07:10:35.092Z,96.79
2024-05-09T07:13:02.954Z,92.93
2024-05-09T07:15:29.599Z,92.49
2024-05-09T07:17:56.312Z,90.73
2024-05-09T07:20:32.005Z,97.33
2024-05-09T07:23:02.814Z,92.01
2024-05-09T07:25:32.364Z,90.37
2024-05-09T07:27:58.989Z,91.20
2024-05-09T07:30:32.844Z,89.74
2024-05-09T07:33:01.468Z,89.18
2024-05-09T07:35:28.810Z,88.71
2024-05-09T07:37:55.544Z,85.55
2024-05-09T07:40:31.852Z,89.18
2024-05-09T07:43:07.303Z,87.28
2024-05-09T07:52:23.421Z,84.59
2024-05-09T07:53:38.500Z,86.54
2024-05-09T07:56:07.046Z,85.96
2024-05-09T07:58:36.716Z,86.59
2024-05-09T08:01:03.455Z,82.06
2024-05-09T08:03:30.409Z,81.87
2024-05-09T08:05:57.028Z,80.69
2024-05-09T08:08:23.650Z,78.96
2024-05-09T08:10:50.505Z,80.77
2024-05-09T08:13:17.120Z,79.96
2024-05-09T08:15:46.351Z,79.14
2024-05-09T08:18:13.180Z,77.44
2024-05-09T08:20:40.633Z,75.95
2024-05-09T08:23:07.402Z,76.16
2024-05-09T08:25:34.079Z,75.91
2024-05-09T08:28:04.007Z,78.27
2024-05-09T08:30:36.481Z,74.98
2024-05-09T08:33:07.948Z,75.67
2024-05-09T08:35:35.154Z,75.64
2024-05-09T08:38:02.360Z,74.66
2024-05-09T08:40:34.449Z,72.13
2024-05-09T08:43:07.411Z,71.78
2024-05-09T08:45:35.043Z,71.41
2024-05-09T08:48:02.937Z,73.95
2024-05-09T08:50:38.462Z,71.00
2024-05-09T08:53:06.567Z,72.39
2024-05-09T08:55:33.455Z,71.20
2024-05-09T08:58:03.387Z,72.19
2024-05-09T09:00:36.720Z,73.98
2024-05-09T09:03:09.326Z,71.30
2024-05-09T09:05:39.903Z,71.82
2024-05-09T09:08:08.393Z,67.83
2024-05-09T09:10:35.595Z,71.07
2024-05-09T09:13:03.062Z,63.04
2024-05-09T09:15:29.958Z,62.28
2024-05-09T09:17:57.079Z,63.46
2024-05-09T09:20:29.510Z,64.21
2024-05-09T09:23:05.134Z,58.80
2024-05-09T09:25:32.168Z,57.38
2024-05-09T09:27:59.160Z,59.70
2024-05-09T09:30:34.966Z,60.27
2024-05-09T09:33:04.875Z,59.04
2024-05-09T09:35:31.784Z,56.94
2024-05-09T09:38:04.767Z,59.31
2024-05-09T09:40:37.093Z,58.41
2024-05-09T09:43:14.749Z,52.58
2024-05-09T09:45:43.126Z,53.62
2024-05-09T09:48:10.416Z,50.92
2024-05-09T09:50:38.288Z,49.55
2024-05-09T09:53:08.064Z,50.77
2024-05-09T09:55:37.088Z,49.17
2024-05-09T09:58:05.890Z,48.90
2024-05-09T10:00:34.450Z,51.88
2024-05-09T10:03:01.873Z,45.40
2024-05-09T10:05:29.461Z,47.56
2024-05-09T10:07:57.343Z,47.47
2024-05-09T10:10:31.868Z,45.79
2024-05-09T10:13:00.326Z,45.37
2024-05-09T10:15:27.434Z,46.41
2024-05-09T10:17:54.390Z,47.04
2024-05-09T10:20:25.024Z,46.92
2024-05-09T10:22:54.780Z,49.35
2024-05-09T10:25:21.670Z,48.62
2024-05-09T10:27:57.057Z,48.14
2024-05-09T10:30:29.840Z,48.89
2024-05-09T10:33:02.509Z,45.95
2024-05-09T10:35:31.937Z,44.45
2024-05-09T10:38:05.588Z,48.75
2024-05-09T10:40:32.667Z,47.57
2024-05-09T10:43:05.857Z,44.26
2024-05-09T10:45:35.198Z,43.46
2024-05-09T10:48:02.153Z,45.55
2024-05-09T10:50:33.676Z,48.70
2024-05-09T10:53:02.490Z,45.57
2024-05-09T10:55:29.164Z,45.10
2024-05-09T10:57:55.829Z,45.13
2024-05-09T11:00:35.379Z,53.71
2024-05-09T11:03:02.849Z,43.32
2024-05-09T11:05:29.690Z,46.58
2024-05-09T11:07:56.368Z,48.63
2024-05-09T11:10:27.878Z,42.96
2024-05-09T11:13:00.322Z,46.32
2024-05-09T11:15:37.724Z,44.51
2024-05-09T11:18:05.131Z,46.32
2024-05-09T11:20:35.506Z,49.29
2024-05-09T11:23:04.778Z,44.31
2024-05-09T11:25:31.551Z,44.51
2024-05-09T11:27:59.042Z,44.34
2024-05-09T11:30:31.561Z,42.55
2024-05-09T11:33:01.593Z,44.73
2024-05-09T11:35:28.241Z,41.65
2024-05-09T11:37:55.007Z,41.31
2024-05-09T11:40:25.697Z,46.62
2024-05-09T11:42:58.954Z,44.24
2024-05-09T11:45:25.621Z,43.26
2024-05-09T11:47:52.721Z,48.03
2024-05-09T11:50:27.335Z,40.62
2024-05-09T11:52:59.028Z,45.66
2024-05-09T11:55:28.039Z,44.41
2024-05-09T11:57:55.498Z,42.22
2024-05-09T12:00:29.645Z,42.80
2024-05-09T12:03:03.222Z,46.28
2024-05-09T12:05:32.626Z,49.05
2024-05-09T12:07:59.989Z,50.15
2024-05-09T12:10:33.014Z,47.22
2024-05-09T12:13:02.900Z,44.25
2024-05-09T12:15:30.422Z,42.66
2024-05-09T12:17:59.929Z,44.95
2024-05-09T12:20:35.498Z,44.78
2024-05-09T12:23:10.199Z,40.38
2024-05-09T12:25:37.452Z,38.32
2024-05-09T12:28:04.656Z,43.74
2024-05-09T12:30:36.806Z,42.64
2024-05-09T12:33:07.147Z,40.69
2024-05-09T12:35:33.849Z,39.09
2024-05-09T12:38:00.555Z,46.89
2024-05-09T12:40:35.860Z,41.95
2024-05-09T12:43:06.021Z,43.74
2024-05-09T12:45:32.870Z,45.58
2024-05-09T12:47:59.662Z,45.06
2024-05-09T12:50:32.370Z,42.00
2024-05-09T12:53:01.470Z,43.48
2024-05-09T12:55:37.322Z,43.94
2024-05-09T12:58:11.352Z,37.52
2024-05-09T13:00:38.267Z,36.89
2024-05-09T13:03:05.448Z,37.18
2024-05-09T13:05:32.276Z,38.71
2024-05-09T13:07:59.200Z,33.93
2024-05-09T13:10:31.801Z,37.11
2024-05-09T13:13:02.486Z,36.53
2024-05-09T13:15:29.403Z,40.35
2024-05-09T13:17:59.533Z,40.50
2024-05-09T13:20:33.062Z,38.55
2024-05-09T13:23:03.089Z,44.95
2024-05-09T13:25:29.774Z,38.71
2024-05-09T13:27:56.839Z,42.13
2024-05-09T13:30:34.332Z,43.59
2024-05-09T13:33:07.013Z,47.07
2024-05-09T13:35:34.128Z,46.39
2024-05-09T13:38:00.927Z,42.73
2024-05-09T13:40:33.300Z,46.22
2024-05-09T13:43:02.645Z,45.77
2024-05-09T13:45:32.074Z,42.44
2024-05-09T13:47:58.968Z,37.52
2024-05-09T13:50:33.283Z,36.39
2024-05-09T13:53:02.880Z,35.64
2024-05-09T13:55:29.537Z,36.41
2024-05-09T13:57:56.725Z,35.25
2024-05-09T14:00:37.728Z,36.97
2024-05-09T14:03:13.581Z,36.95
2024-05-09T14:05:40.391Z,36.70
2024-05-09T14:08:07.322Z,39.64
2024-05-09T14:10:34.959Z,36.31
2024-05-09T14:13:01.782Z,37.09
2024-05-09T14:15:28.651Z,35.38
2024-05-09T14:17:55.671Z,38.97
2024-05-09T14:20:31.047Z,35.26
2024-05-09T14:22:59.009Z,37.78
2024-05-09T14:25:27.471Z,39.98
2024-05-09T14:27:54.317Z,35.18
2024-05-09T14:30:30.199Z,35.22
2024-05-09T14:33:02.826Z,35.23
2024-05-09T14:35:32.150Z,36.82
2024-05-09T14:37:58.767Z,34.65
2024-05-09T14:40:36.911Z,34.15
2024-05-09T14:43:08.379Z,37.07
2024-05-09T14:45:35.295Z,36.77
2024-05-09T14:48:02.492Z,33.57
2024-05-09T14:50:35.809Z,38.24
2024-05-09T14:53:09.019Z,37.59
2024-05-09T14:55:37.710Z,43.15
2024-05-09T14:58:06.568Z,37.96
2024-05-09T15:00:36.264Z,40.61
2024-05-09T15:03:04.601Z,36.27
2024-05-09T15:05:31.227Z,35.46
2024-05-09T15:07:58.525Z,35.94
2024-05-09T15:10:34.501Z,33.71
2024-05-09T15:13:03.437Z,33.22
2024-05-09T15:15:30.236Z,36.93
2024-05-09T15:17:57.152Z,31.63
2024-05-09T15:20:30.748Z,34.07
2024-05-09T15:23:01.795Z,35.69
2024-05-09T15:25:31.130Z,33.52
2024-05-09T15:27:57.977Z,32.35
2024-05-09T15:30:30.769Z,34.89
2024-05-09T15:32:59.856Z,36.54
2024-05-09T15:35:26.598Z,37.53
2024-05-09T15:37:53.253Z,36.10
2024-05-09T15:40:30.415Z,34.61
2024-05-09T15:43:07.601Z,37.86
2024-05-09T15:45:34.982Z,34.64
2024-05-09T15:48:02.200Z,36.52
2024-05-09T15:50:36.628Z,33.82
2024-05-09T15:53:07.576Z,33.76
2024-05-09T15:55:35.193Z,33.82
2024-05-09T15:58:03.150Z,33.86
2024-05-09T16:00:38.574Z,35.56
2024-05-09T16:03:09.006Z,36.78
2024-05-09T16:05:36.185Z,33.35
2024-05-09T16:08:03.140Z,31.74
2024-05-09T16:10:33.027Z,33.57
2024-05-09T16:13:01.464Z,33.55
2024-05-09T16:15:28.412Z,37.11
2024-05-09T16:17:57.718Z,35.43
2024-05-09T16:22:53.882Z,35.96
2024-05-09T16:25:20.493Z,33.04
2024-05-09T16:27:47.417Z,33.20
2024-05-09T16:30:21.319Z,32.85
2024-05-09T16:32:57.494Z,33.32
2024-05-09T16:35:24.175Z,35.74
2024-05-09T16:37:50.786Z,35.49
2024-05-09T16:40:25.477Z,31.44
2024-05-09T16:43:03.432Z,31.51
2024-05-09T16:45:30.279Z,32.44
2024-05-09T16:48:00.310Z,36.30
2024-05-09T16:50:32.344Z,37.63
2024-05-09T16:53:01.194Z,32.96
2024-05-09T16:55:27.968Z,33.26
2024-05-09T16:57:56.410Z,33.25
2024-05-09T17:00:34.849Z,32.88
2024-05-09T17:03:12.914Z,37.21
2024-05-09T17:05:41.068Z,33.31
2024-05-09T17:08:08.656Z,34.29
2024-05-09T17:10:35.731Z,35.74
2024-05-09T17:13:03.227Z,35.83
2024-05-09T17:15:30.945Z,36.83
2024-05-09T17:17:57.715Z,36.43
2024-05-09T17:20:33.030Z,36.16
2024-05-09T17:23:03.767Z,37.25
2024-05-09T17:25:30.526Z,36.41
2024-05-09T17:27:57.422Z,37.86
2024-05-09T17:30:29.339Z,40.31
2024-05-09T17:33:02.545Z,36.23
2024-05-09T17:35:32.233Z,38.49
2024-05-09T17:37:59.102Z,39.28
2024-05-09T17:40:31.554Z,42.18
2024-05-09T17:43:02.302Z,39.35
2024-05-09T17:45:29.274Z,42.89
2024-05-09T17:47:56.073Z,40.65
2024-05-09T17:50:30.261Z,43.81
2024-05-09T17:53:04.313Z,42.94
2024-05-09T17:55:31.122Z,42.06
2024-05-09T17:57:58.093Z,44.47
2024-05-09T18:00:36.235Z,46.92
2024-05-09T18:03:06.679Z,46.80
2024-05-09T18:05:35.055Z,46.63
2024-05-09T18:08:05.333Z,49.56
2024-05-09T18:10:36.778Z,48.65
2024-05-09T18:13:06.818Z,50.59
2024-05-09T18:15:34.235Z,54.47
2024-05-09T18:18:02.033Z,54.50
2024-05-09T18:20:37.903Z,54.33
2024-05-09T18:23:14.098Z,56.59
2024-05-09T18:25:41.529Z,58.62
2024-05-09T18:28:08.323Z,59.55
2024-05-09T18:30:36.762Z,59.14
2024-05-09T18:33:05.410Z,61.85
2024-05-09T18:35:33.411Z,63.03
2024-05-09T18:38:00.526Z,63.87
2024-05-09T18:40:34.458Z,64.29
2024-05-09T18:43:05.485Z,64.71
2024-05-09T18:45:33.569Z,65.28
2024-05-09T18:48:00.492Z,66.40
2024-05-09T18:50:34.654Z,66.42
2024-05-09T18:53:05.505Z,67.24
2024-05-09T18:55:34.628Z,68.84
2024-05-09T18:58:01.339Z,69.25
2024-05-09T19:00:34.620Z,73.02
2024-05-09T19:03:06.185Z,76.19
2024-05-09T19:05:34.268Z,76.01
2024-05-09T19:08:02.634Z,77.17
2024-05-09T19:10:34.219Z,76.55
2024-05-09T19:13:11.871Z,81.11
2024-05-09T19:15:41.256Z,82.26
2024-05-09T19:18:09.602Z,84.34
2024-05-09T19:20:37.255Z,84.58
2024-05-09T19:23:06.846Z,83.94
2024-05-09T19:25:34.612Z,86.57
2024-05-09T19:28:01.629Z,86.39
2024-05-09T19:30:38.540Z,86.34
2024-05-09T19:33:08.763Z,87.62
2024-05-09T19:35:35.940Z,86.32
2024-05-09T19:38:02.740Z,87.53
2024-05-09T19:40:32.227Z,89.32
2024-05-09T19:43:00.736Z,91.34
2024-05-09T19:45:30.192Z,88.65
2024-05-09T19:47:57.346Z,92.40
2024-05-09T19:50:32.147Z,91.69
2024-05-09T19:53:06.480Z,93.41
2024-05-09T19:55:33.139Z,91.71
2024-05-09T19:58:03.623Z,92.09
2024-05-09T20:00:36.546Z,93.55
2024-05-09T20:03:05.893Z,92.81
2024-05-09T20:05:33.283Z,94.18
2024-05-09T20:08:00.086Z,94.00
2024-05-09T20:10:31.706Z,94.58
2024-05-09T20:13:00.627Z,97.15
2024-05-09T20:15:27.407Z,97.92
2024-05-09T20:17:56.954Z,97.89
2024-05-09T20:20:32.627Z,100.00
2024-05-09T20:23:04.802Z,100.00
2024-05-09T20:25:31.352Z,100.00
2024-05-09T20:27:58.071Z,100.00
2024-05-09T20:30:31.374Z,100.00
2024-05-09T20:33:04.120Z,100.00
2024-05-09T20:35:32.141Z,100.00
2024-05-09T20:37:59.305Z,100.00
2024-05-09T20:40:31.973Z,100.00
2024-05-09T20:43:02.277Z,100.00
2024-05-09T20:45:28.931Z,100.00
2024-05-09T20:47:55.825Z,100.00
2024-05-09T20:50:35.616Z,100.00
2024-05-09T20:53:08.231Z,100.00
2024-05-09T20:55:34.904Z,100.00
2024-05-09T20:58:01.505Z,100.00
2024-05-09T21:00:35.426Z,100.00
2024-05-09T21:03:07.292Z,100.00
2024-05-09T21:05:36.974Z,100.00
2024-05-09T21:08:04.228Z,100.00
2024-05-09T21:10:33.305Z,100.00
2024-05-09T21:13:01.361Z,100.00
2024-05-09T21:15:28.253Z,100.00
2024-05-09T21:17:55.005Z,100.00
2024-05-09T21:20:28.307Z,100.00
2024-05-09T21:23:00.204Z,100.00
2024-05-09T21:25:26.867Z,100.00
2024-05-09T21:27:53.632Z,100.00
2024-05-09T21:30:32.275Z,100.00
2024-05-09T21:33:08.133Z,100.00
2024-05-09T21:35:35.011Z,100.00
2024-05-09T21:38:04.630Z,100.00
2024-05-09T21:40:34.707Z,100.00
2024-05-09T21:43:03.125Z,100.00
2024-05-09T21:45:29.911Z,100.00
2024-05-09T21:47:56.787Z,100.00
2024-05-09T21:50:31.603Z,100.00
2024-05-09T21:53:07.997Z,100.00
2024-05-09T21:55:34.622Z,100.00
2024-05-09T21:58:01.458Z,100.00
2024-05-09T22:00:35.265Z,100.00
2024-05-09T22:03:05.210Z,100.00
2024-05-09T22:05:32.119Z,100.00
2024-05-09T22:07:59.298Z,100.00
2024-05-09T22:10:33.971Z,100.00
2024-05-09T22:13:02.686Z,100.00
2024-05-09T22:15:29.571Z,100.00
2024-05-09T22:17:57.446Z,100.00
2024-05-09T22:20:33.154Z,100.00
2024-05-09T22:23:03.634Z,100.00
2024-05-09T22:25:33.145Z,100.00
2024-05-09T22:28:00.710Z,100.00
2024-05-09T22:30:34.822Z,100.00
2024-05-09T22:33:06.065Z,100.00
2024-05-09T22:35:32.907Z,100.00
2024-05-09T22:37:59.562Z,100.00
2024-05-09T22:40:38.082Z,100.00
2024-05-09T22:43:17.152Z,100.00
2024-05-09T22:45:44.043Z,100.00
2024-05-09T22:48:10.882Z,100.00
2024-05-09T22:50:37.543Z,100.00
2024-05-09T22:53:04.497Z,100.00
2024-05-09T22:55:31.065Z,100.00
2024-05-09T22:57:57.776Z,100.00
2024-05-09T23:00:31.647Z,100.00
2024-05-09T23:03:00.082Z,100.00
2024-05-09T23:05:27.112Z,100.00
2024-05-09T23:07:54.132Z,100.00
2024-05-09T23:10:27.931Z,100.00
2024-05-09T23:13:00.909Z,100.00
2024-05-09T23:15:30.449Z,100.00
2024-05-09T23:17:57.429Z,100.00
2024-05-09T23:22:54.026Z,100.00
2024-05-09T23:25:20.619Z,100.00
2024-05-09T23:27:47.310Z,100.00
2024-05-09T23:30:25.560Z,100.00
2024-05-09T23:33:01.926Z,100.00
2024-05-09T23:35:28.714Z,100.00
2024-05-09T23:37:55.292Z,100.00
2024-05-09T23:40:23.467Z,100.00
2024-05-09T23:42:50.749Z,100.00
2024-05-09T23:45:17.448Z,100.00
2024-05-09T23:47:44.032Z,100.00
2024-05-09T23:50:20.248Z,100.00
2024-05-09T23:52:50.345Z,100.00
2024-05-09T23:55:17.195Z,100.00
2024-05-09T23:57:43.894Z,100.00
